Time;durP1;ratioP1;P1;durP2;ratioP2;P2;SDS_P1;SDS_P2;PMS_P1;PMS_P2;Temp;Humidity;BMP_temperature;BMP_pressure;BME280_temperature;BME280_humidity;BME280_pressure;Samples;Min_cycle;Max_cycle;Signal;HPM_P1;HPM_P2
2022/03/28 00:00:31;;;;;;;;;42.75;36.50;;;;;11.77;45.91;102164.66;5077778;27;45532;-74
2022/03/28 00:02:58;;;;;;;;;48.75;36.25;;;;;12.08;45.67;102216.31;5077707;27;46080;-75
2022/03/28 00:05:24;;;;;;;;;44.50;34.25;;;;;11.74;46.13;102174.22;5073134;27;45236;-75
2022/03/28 00:07:50;;;;;;;;;44.75;36.00;;;;;11.98;45.76;102215.00;5078299;28;45405;-75
2022/03/28 00:10:15;;;;;;;;;45.00;35.50;;;;;11.83;46.46;102195.81;5069723;27;45537;-75
2022/03/28 00:12:41;;;;;;;;;50.25;38.50;;;;;11.87;47.83;102213.66;5077860;27;45327;-75
2022/03/28 00:15:09;;;;;;;;;42.50;34.25;;;;;11.80;46.72;102209.81;5068120;28;45223;-75
2022/03/28 00:17:36;;;;;;;;;45.00;36.00;;;;;11.81;47.08;102213.38;5077587;27;45276;-75
2022/03/28 00:20:07;;;;;;;;;41.00;35.00;;;;;11.76;47.11;102206.97;5069578;27;45510;-74
2022/03/28 00:22:32;;;;;;;;;40.50;33.00;;;;;11.70;46.58;102197.03;5077672;27;45454;-74
2022/03/28 00:24:58;;;;;;;;;36.75;33.75;;;;;11.61;46.75;102180.75;5079511;28;46086;-75
2022/03/28 00:27:23;;;;;;;;;38.50;33.25;;;;;11.42;47.73;102161.41;5078643;28;45377;-74
2022/03/28 00:29:49;;;;;;;;;35.50;31.25;;;;;11.67;47.78;102204.84;5069141;28;45570;-74
2022/03/28 00:32:14;;;;;;;;;46.00;35.75;;;;;11.54;47.85;102187.53;5080775;28;46058;-74
2022/03/28 00:34:40;;;;;;;;;33.25;32.50;;;;;11.59;47.34;102199.22;5074701;28;45361;-73
2022/03/28 00:37:06;;;;;;;;;35.75;32.25;;;;;11.28;47.77;102151.09;5074939;28;45770;-74
2022/03/28 00:39:32;;;;;;;;;42.25;35.25;;;;;11.46;47.16;102186.31;5074924;28;45581;-73
2022/03/28 00:41:57;;;;;;;;;48.75;37.00;;;;;11.05;48.69;102113.94;5073195;28;47577;-74
2022/03/28 00:44:23;;;;;;;;;36.75;33.00;;;;;10.91;48.51;102091.28;5077204;27;45326;-75
2022/03/28 00:46:48;;;;;;;;;40.50;35.00;;;;;11.46;48.79;102188.97;5075514;28;45390;-74
2022/03/28 00:49:15;;;;;;;;;41.75;35.50;;;;;11.39;48.58;102186.88;5072275;28;47358;-74
2022/03/28 00:51:41;;;;;;;;;43.75;37.50;;;;;11.29;48.46;102175.00;5081975;28;45395;-74
2022/03/28 00:54:07;;;;;;;;;43.75;33.00;;;;;11.34;48.92;102185.75;5079902;27;45235;-74
2022/03/28 00:56:33;;;;;;;;;39.25;33.25;;;;;10.86;48.88;102100.75;5074378;28;45302;-74
2022/03/28 00:58:59;;;;;;;;;40.50;35.00;;;;;11.32;49.20;102184.81;5080572;27;45445;-74
2022/03/28 01:01:28;;;;;;;;;40.50;33.00;;;;;11.16;48.24;102154.13;5075290;28;46065;-73
2022/03/28 01:03:53;;;;;;;;;46.75;36.75;;;;;11.22;48.94;102172.91;5080901;28;45492;-76
2022/03/28 01:06:19;;;;;;;;;35.75;30.00;;;;;10.92;48.85;102128.41;5080411;28;45323;-75
2022/03/28 01:08:44;;;;;;;;;41.25;36.25;;;;;11.13;49.69;102161.91;5072993;27;45432;-73
2022/03/28 01:11:10;;;;;;;;;43.75;35.50;;;;;11.14;49.62;102161.97;5079522;28;46172;-75
2022/03/28 01:13:38;;;;;;;;;44.75;35.50;;;;;11.21;49.12;102171.09;5074954;27;45252;-74
2022/03/28 01:16:04;;;;;;;;;39.00;35.00;;;;;11.16;49.46;102172.63;5078406;28;45485;-74
2022/03/28 01:18:31;;;;;;;;;38.25;33.25;;;;;10.84;50.14;102116.56;5075569;27;45398;-74
2022/03/28 01:20:57;;;;;;;;;42.00;33.75;;;;;11.02;49.47;102155.25;5077307;28;45389;-74
2022/03/28 01:23:23;;;;;;;;;38.00;32.00;;;;;10.88;49.81;102133.47;5079507;28;45519;-74
2022/03/28 01:25:54;;;;;;;;;43.25;35.75;;;;;10.95;50.70;102157.63;5081316;28;45390;-74
2022/03/28 01:28:21;;;;;;;;;38.00;33.75;;;;;11.00;50.61;102165.75;5077314;27;45598;-74
2022/03/28 01:30:47;;;;;;;;;36.75;33.50;;;;;10.67;51.19;102112.25;5074329;28;47432;-73
2022/03/28 01:33:13;;;;;;;;;50.00;39.50;;;;;10.91;49.65;102158.31;5075722;28;45356;-74
2022/03/28 01:35:41;;;;;;;;;44.25;35.25;;;;;10.90;51.30;102155.63;5078586;28;45229;-74
2022/03/28 01:38:12;;;;;;;;;40.25;35.25;;;;;10.90;50.78;102166.19;5075755;28;45538;-74
2022/03/28 01:40:41;;;;;;;;;41.50;36.50;;;;;10.87;50.58;102151.09;5068982;27;45314;-73
2022/03/28 01:43:07;;;;;;;;;38.25;33.50;;;;;10.85;52.06;102154.50;5078973;27;45517;-74
2022/03/28 01:45:32;;;;;;;;;41.75;35.50;;;;;10.75;50.58;102137.28;5081087;27;45305;-74
2022/03/28 01:47:58;;;;;;;;;44.75;34.75;;;;;10.82;51.24;102152.63;5079955;27;45245;-74
2022/03/28 01:50:25;;;;;;;;;46.00;35.75;;;;;10.82;51.87;102149.06;5080626;28;45165;-74
2022/03/28 01:52:50;;;;;;;;;47.75;37.50;;;;;10.60;52.11;102112.81;5080172;27;45394;-74
2022/03/28 01:55:15;;;;;;;;;42.75;37.00;;;;;10.57;51.85;102107.41;5073247;28;45516;-74
2022/03/28 01:57:42;;;;;;;;;41.75;36.50;;;;;10.62;52.08;102116.44;5080105;28;45343;-74
2022/03/28 02:00:16;;;;;;;;;39.25;31.75;;;;;10.75;50.48;102148.81;5074406;28;46183;-74
2022/03/28 02:02:42;;;;;;;;;40.75;37.25;;;;;10.36;52.33;102071.19;5079628;28;45230;-73
2022/03/28 02:05:16;;;;;;;;;45.50;37.50;;;;;10.52;52.37;102109.81;5075985;27;45346;-74
2022/03/28 02:07:44;;;;;;;;;38.00;33.50;;;;;10.71;51.68;102145.94;5080263;28;45508;-74
2022/03/28 02:10:14;;;;;;;;;43.50;37.00;;;;;10.63;51.97;102121.78;5071532;28;46158;-73
2022/03/28 02:12:40;;;;;;;;;44.75;35.50;;;;;10.48;52.72;102097.31;5075444;27;45463;-73
2022/03/28 02:15:07;;;;;;;;;44.75;37.00;;;;;10.69;52.11;102132.63;5071740;27;45472;-74
2022/03/28 02:17:34;;;;;;;;;49.00;37.50;;;;;10.60;53.12;102126.03;5076788;28;46851;-73
2022/03/28 02:19:59;;;;;;;;;45.75;33.25;;;;;10.66;52.63;102134.25;5077903;28;48150;-74
2022/03/28 02:22:25;;;;;;;;;49.50;38.50;;;;;10.35;53.30;102087.91;5076777;28;45283;-74
2022/03/28 02:24:51;;;;;;;;;46.25;36.00;;;;;10.56;53.08;102132.00;5076252;28;45246;-73
2022/03/28 02:27:16;;;;;;;;;43.75;36.50;;;;;10.22;53.44;102070.56;5079672;27;45569;-74
2022/03/28 02:29:42;;;;;;;;;47.75;37.25;;;;;10.42;52.74;102103.22;5069823;27;45335;-73
2022/03/28 02:32:08;;;;;;;;;43.00;35.75;;;;;10.55;52.93;102132.84;5073485;28;45224;-74
2022/03/28 02:34:33;;;;;;;;;39.75;33.00;;;;;10.56;54.04;102134.66;5073292;27;45406;-73
2022/03/28 02:36:59;;;;;;;;;41.00;35.75;;;;;10.56;54.08;102126.72;5073608;28;45364;-73
2022/03/28 02:39:25;;;;;;;;;38.25;35.25;;;;;10.44;53.47;102108.56;5078478;28;46953;-74
2022/03/28 02:41:51;;;;;;;;;43.50;35.75;;;;;10.06;53.78;102046.91;5080335;28;45382;-74
2022/03/28 02:44:17;;;;;;;;;48.00;35.50;;;;;10.44;53.77;102109.47;5077208;27;45424;-74
2022/03/28 02:46:43;;;;;;;;;41.75;36.75;;;;;10.44;53.42;102108.56;5073439;27;45319;-74
2022/03/28 02:49:09;;;;;;;;;43.75;34.50;;;;;10.11;53.74;102053.31;5078871;28;45318;-74
2022/03/28 02:51:35;;;;;;;;;46.25;38.00;;;;;10.32;53.23;102093.06;5078553;28;45457;-74
2022/03/28 02:54:00;;;;;;;;;42.75;34.25;;;;;10.28;54.29;102081.44;5079005;27;45411;-74
2022/03/28 02:56:25;;;;;;;;;44.75;36.75;;;;;10.35;54.59;102094.94;5072825;27;45323;-74
2022/03/28 02:58:51;;;;;;;;;42.50;36.00;;;;;10.34;54.38;102098.41;5078836;27;46309;-74
2022/03/28 03:01:16;;;;;;;;;48.25;39.00;;;;;9.77;54.28;102000.63;5073725;27;45504;-73
2022/03/28 03:03:42;;;;;;;;;41.75;34.75;;;;;10.18;54.63;102076.53;5072520;28;45291;-73
2022/03/28 03:06:08;;;;;;;;;50.75;39.25;;;;;10.25;55.80;102093.56;5077537;28;45357;-74
2022/03/28 03:08:33;;;;;;;;;45.00;36.25;;;;;10.30;55.56;102102.63;5076235;27;45259;-73
2022/03/28 03:10:58;;;;;;;;;38.25;34.75;;;;;10.17;55.57;102087.03;5075831;28;45213;-74
2022/03/28 03:13:24;;;;;;;;;43.75;35.75;;;;;10.25;55.62;102094.47;5075294;27;45247;-73
2022/03/28 03:15:49;;;;;;;;;41.50;32.25;;;;;10.23;55.02;102098.78;5074478;28;45212;-73
2022/03/28 03:18:14;;;;;;;;;47.50;36.00;;;;;9.89;55.93;102031.97;5075891;27;45323;-73
2022/03/28 03:20:40;;;;;;;;;44.00;36.25;;;;;10.19;57.35;102091.53;5072940;28;45361;-73
2022/03/28 03:23:05;;;;;;;;;45.50;38.50;;;;;10.18;57.60;102087.09;5077587;27;45311;-74
2022/03/28 03:25:30;;;;;;;;;47.25;38.25;;;;;9.93;55.98;102047.16;5071653;28;45133;-73
2022/03/28 03:27:57;;;;;;;;;44.75;38.75;;;;;10.16;56.02;102080.81;5074200;27;45334;-73
2022/03/28 03:30:22;;;;;;;;;52.50;38.75;;;;;10.14;56.54;102087.78;5060050;28;45328;-73
2022/03/28 03:32:48;;;;;;;;;55.75;37.25;;;;;10.11;57.72;102079.72;5073923;28;45271;-73
2022/03/28 03:35:13;;;;;;;;;46.50;36.25;;;;;9.91;56.72;102054.09;5068015;28;45535;-73
2022/03/28 03:37:39;;;;;;;;;45.75;39.25;;;;;10.07;57.73;102086.59;5074436;28;48046;-73
2022/03/28 03:40:06;;;;;;;;;44.25;36.25;;;;;9.90;56.96;102058.47;5070462;27;45225;-74
2022/03/28 03:42:32;;;;;;;;;44.75;37.50;;;;;9.97;58.16;102075.50;5075287;28;45216;-73
2022/03/28 03:44:58;;;;;;;;;52.25;38.50;;;;;10.00;57.92;102086.25;5069790;28;46121;-73
2022/03/28 03:47:24;;;;;;;;;44.75;36.00;;;;;9.91;57.92;102070.84;5076080;28;46171;-73
2022/03/28 03:49:50;;;;;;;;;49.75;40.50;;;;;9.64;57.75;102037.03;5078936;27;45324;-73
2022/03/28 03:52:16;;;;;;;;;48.50;39.00;;;;;9.94;59.11;102078.00;5078338;27;45310;-73
2022/03/28 03:54:41;;;;;;;;;45.00;38.25;;;;;9.82;58.12;102055.47;5073194;28;45252;-73
2022/03/28 03:57:07;;;;;;;;;39.25;34.50;;;;;9.69;57.15;102045.16;5076589;28;46120;-73
2022/03/28 03:59:33;;;;;;;;;52.75;41.50;;;;;9.87;58.50;102079.47;5073218;28;45430;-73
2022/03/28 04:01:58;;;;;;;;;50.50;38.00;;;;;9.85;59.33;102079.38;5077272;28;45448;-73
2022/03/28 04:04:23;;;;;;;;;51.00;39.50;;;;;9.83;59.04;102075.78;5069777;27;45388;-73
2022/03/28 04:06:49;;;;;;;;;50.25;39.00;;;;;9.81;59.21;102072.16;5078812;27;45306;-73
2022/03/28 04:09:14;;;;;;;;;50.75;41.25;;;;;9.81;58.96;102076.53;5071818;28;45413;-73
2022/03/28 04:11:40;;;;;;;;;52.00;39.50;;;;;9.80;59.16;102072.06;5077998;28;45426;-73
2022/03/28 04:14:05;;;;;;;;;54.25;43.75;;;;;9.80;60.02;102074.69;5072588;28;46137;-73
2022/03/28 04:16:30;;;;;;;;;47.00;39.50;;;;;9.63;59.20;102042.22;5076691;28;45412;-73
2022/03/28 04:18:56;;;;;;;;;51.75;40.25;;;;;9.75;59.27;102068.31;5069856;28;45149;-72
2022/03/28 04:21:21;;;;;;;;;57.75;43.25;;;;;9.56;60.05;102050.69;5078047;28;45368;-73
2022/03/28 04:23:47;;;;;;;;;51.75;41.75;;;;;9.41;60.29;102040.28;5070831;27;45577;-73
2022/03/28 04:26:12;;;;;;;;;49.50;40.25;;;;;9.15;60.73;101991.50;5074883;28;47220;-73
2022/03/28 04:28:38;;;;;;;;;55.25;43.25;;;;;9.38;60.13;102034.84;5073296;27;45346;-73
2022/03/28 04:31:03;;;;;;;;;53.00;44.25;;;;;9.35;59.77;102030.34;5077232;28;45333;-73
2022/03/28 04:33:29;;;;;;;;;58.75;43.25;;;;;9.48;61.29;102059.97;5073186;27;46192;-73
2022/03/28 04:35:54;;;;;;;;;52.75;41.50;;;;;9.45;60.21;102046.63;5066764;27;46416;-73
2022/03/28 04:38:20;;;;;;;;;46.75;35.75;;;;;9.58;59.93;102078.97;5075373;28;45315;-73
2022/03/28 04:40:45;;;;;;;;;56.50;41.00;;;;;9.25;60.23;102025.44;5067987;28;45346;-73
2022/03/28 04:43:11;;;;;;;;;54.75;41.00;;;;;9.58;60.76;102081.59;5077684;28;45398;-73
2022/03/28 04:45:36;;;;;;;;;56.25;42.75;;;;;9.38;61.65;102040.13;5070663;27;45293;-73
2022/03/28 04:48:02;;;;;;;;;57.00;43.00;;;;;9.52;60.83;102065.47;5077068;27;45438;-73
2022/03/28 04:50:28;;;;;;;;;58.50;44.50;;;;;9.56;60.83;102069.16;5076869;28;45351;-73
2022/03/28 04:52:54;;;;;;;;;56.50;44.50;;;;;9.56;62.17;102066.53;5077347;27;45311;-73
2022/03/28 04:55:19;;;;;;;;;54.00;41.00;;;;;9.28;60.49;102019.41;5071045;28;45473;-73
2022/03/28 04:57:45;;;;;;;;;48.75;40.50;;;;;9.06;61.13;101988.41;5077362;28;45364;-73
2022/03/28 05:00:11;;;;;;;;;60.75;47.00;;;;;9.47;61.30;102060.81;5087687;27;45284;-74
2022/03/28 05:02:37;;;;;;;;;56.00;43.75;;;;;9.32;60.87;102031.91;5069431;28;46107;-74
2022/03/28 05:05:04;;;;;;;;;55.75;44.25;;;;;9.51;61.36;102068.03;5069166;28;46296;-74
2022/03/28 05:07:30;;;;;;;;;63.25;45.75;;;;;9.50;62.01;102063.59;5077297;27;45529;-74
2022/03/28 05:09:56;;;;;;;;;60.50;44.25;;;;;9.48;62.16;102057.31;5070452;28;45492;-74
2022/03/28 05:12:22;;;;;;;;;61.00;47.25;;;;;9.46;63.26;102062.50;5081056;28;45330;-74
2022/03/28 05:14:49;;;;;;;;;57.25;45.00;;;;;9.29;61.20;102034.41;5072303;27;45386;-74
2022/03/28 05:17:15;;;;;;;;;54.00;43.50;;;;;9.16;61.96;102017.06;5080519;27;45296;-75
2022/03/28 05:19:43;;;;;;;;;60.75;45.75;;;;;9.32;61.46;102034.53;5079601;27;45320;-74
2022/03/28 05:22:08;;;;;;;;;55.25;42.75;;;;;9.34;62.06;102052.25;5080857;27;45406;-74
2022/03/28 05:24:34;;;;;;;;;57.00;45.25;;;;;9.38;62.73;102064.81;5072277;28;45217;-74
2022/03/28 05:27:00;;;;;;;;;55.25;45.25;;;;;9.39;62.55;102066.59;5070363;28;45363;-74
2022/03/28 05:29:25;;;;;;;;;56.25;43.50;;;;;9.39;62.61;102069.22;5073935;27;45304;-76
2022/03/28 05:31:51;;;;;;;;;62.75;44.50;;;;;9.38;62.29;102059.53;5070966;28;47170;-74
2022/03/28 05:34:16;;;;;;;;;56.50;45.75;;;;;9.31;62.72;102051.22;5077219;28;46106;-74
2022/03/28 05:36:43;;;;;;;;;61.00;44.00;;;;;9.38;62.67;102064.81;5071672;28;45392;-74
2022/03/28 05:39:09;;;;;;;;;58.50;46.00;;;;;9.22;62.70;102037.56;5087184;27;45375;-74
2022/03/28 05:41:35;;;;;;;;;52.50;42.00;;;;;9.38;62.89;102066.50;5070547;28;47145;-74
2022/03/28 05:44:01;;;;;;;;;60.00;46.25;;;;;9.31;62.77;102046.84;5085148;27;48168;-74
2022/03/28 05:46:27;;;;;;;;;52.25;43.00;;;;;9.40;63.33;102062.22;5072087;27;45431;-73
2022/03/28 05:48:53;;;;;;;;;53.00;42.50;;;;;9.31;63.35;102041.56;5080014;28;45240;-74
2022/03/28 05:51:19;;;;;;;;;57.50;45.75;;;;;9.25;62.61;102025.44;5079569;28;46301;-74
2022/03/28 05:53:45;;;;;;;;;56.75;45.00;;;;;9.47;63.40;102061.69;5079674;27;46215;-74
2022/03/28 05:56:10;;;;;;;;;59.25;46.50;;;;;9.28;63.39;102019.41;5073679;27;45816;-74
2022/03/28 05:58:36;;;;;;;;;57.25;45.25;;;;;9.46;64.09;102035.22;5072229;28;45450;-74
2022/03/28 06:01:01;;;;;;;;;58.75;46.25;;;;;9.36;63.89;102018.06;5075096;27;45697;-75
2022/03/28 06:03:27;;;;;;;;;56.75;43.50;;;;;9.21;64.09;101988.25;5073354;28;46051;-75
2022/03/28 06:05:52;;;;;;;;;57.75;44.00;;;;;9.63;63.96;102058.06;5075775;28;45295;-75
2022/03/28 06:08:18;;;;;;;;;58.00;43.25;;;;;9.67;64.20;102054.75;5077454;27;45315;-74
2022/03/28 06:10:43;;;;;;;;;60.75;44.75;;;;;9.59;63.60;102029.72;5072866;28;46095;-74
2022/03/28 06:13:09;;;;;;;;;59.00;44.00;;;;;9.71;63.48;102039.94;5078999;28;45483;-75
2022/03/28 06:15:37;;;;;;;;;56.50;44.75;;;;;9.70;63.52;102022.31;5062491;28;45448;-75
2022/03/28 06:18:06;;;;;;;;;59.00;44.50;;;;;9.87;62.76;102053.06;5068900;28;45243;-77
2022/03/28 06:20:32;;;;;;;;;58.50;45.00;;;;;9.78;63.56;102027.13;5080065;28;45264;-77
2022/03/28 06:22:58;;;;;;;;;58.25;42.75;;;;;9.82;63.85;102021.13;5075806;28;48208;-76
2022/03/28 06:25:23;;;;;;;;;57.25;45.25;;;;;9.95;63.64;102035.84;5078554;28;45643;-77
2022/03/28 06:27:49;;;;;;;;;57.00;44.00;;;;;10.00;63.20;102042.25;5076966;28;45275;-76
2022/03/28 06:30:15;;;;;;;;;56.75;45.00;;;;;9.98;63.08;102027.16;5079901;28;45403;-75
2022/03/28 06:32:41;;;;;;;;;55.75;44.25;;;;;10.10;63.06;102038.28;5076281;28;45419;-76
2022/03/28 06:35:07;;;;;;;;;60.75;45.75;;;;;10.21;62.14;102046.69;5078954;27;44641;-76
2022/03/28 06:37:33;;;;;;;;;58.25;46.25;;;;;10.25;62.52;102044.28;5064747;28;45217;-76
2022/03/28 06:40:00;;;;;;;;;61.75;46.25;;;;;10.29;63.09;102048.88;5076576;27;46008;-76
2022/03/28 06:42:26;;;;;;;;;52.75;38.25;;;;;10.12;62.69;102011.94;5078695;27;46107;-76
2022/03/28 06:44:51;;;;;;;;;59.75;45.25;;;;;10.14;63.57;102015.53;5079476;28;45340;-75
2022/03/28 06:47:17;;;;;;;;;56.50;46.00;;;;;10.25;62.76;102025.78;5067809;28;45707;-75
2022/03/28 06:49:42;;;;;;;;;58.00;45.75;;;;;10.42;61.92;102044.13;5079371;28;46897;-75
2022/03/28 06:52:09;;;;;;;;;58.50;45.75;;;;;10.47;62.88;102045.25;5078554;28;46432;-74
2022/03/28 06:54:35;;;;;;;;;57.25;46.00;;;;;10.36;61.81;102017.44;5079155;28;45536;-74
2022/03/28 06:57:02;;;;;;;;;57.00;46.00;;;;;10.49;62.43;102031.28;5067196;28;45388;-74
2022/03/28 06:59:29;;;;;;;;;57.25;45.25;;;;;10.53;63.05;102024.41;5078852;27;45443;-75
2022/03/28 07:01:55;;;;;;;;;57.25;46.25;;;;;10.46;62.15;102002.06;5079265;27;46430;-75
2022/03/28 07:04:21;;;;;;;;;57.25;44.75;;;;;10.50;61.48;101996.09;5069362;28;45409;-75
2022/03/28 07:06:48;;;;;;;;;65.50;51.75;;;;;10.76;62.30;102035.97;5071776;27;45395;-74
2022/03/28 07:09:13;;;;;;;;;62.50;47.00;;;;;10.76;62.87;102028.03;5075060;28;46118;-74
2022/03/28 07:11:38;;;;;;;;;63.75;50.00;;;;;10.92;63.38;102027.88;5079455;27;45502;-74
2022/03/28 07:14:04;;;;;;;;;60.75;50.00;;;;;10.84;63.47;101986.03;5074787;28;45917;-74
2022/03/28 07:16:29;;;;;;;;;68.50;50.25;;;;;11.11;60.28;102016.28;5079037;28;45310;-74
2022/03/28 07:18:55;;;;;;;;;63.00;50.25;;;;;11.07;63.27;101979.06;5078259;28;45604;-74
2022/03/28 07:21:20;;;;;;;;;67.00;50.25;;;;;11.48;58.62;102023.09;5079258;28;45387;-75
2022/03/28 07:23:48;;;;;;;;;66.25;47.50;;;;;11.42;61.68;101986.69;5073385;28;45209;-75
2022/03/28 07:26:14;;;;;;;;;66.25;48.75;;;;;11.68;60.50;102008.03;5062448;27;45256;-74
2022/03/28 07:28:39;;;;;;;;;67.25;51.25;;;;;11.78;60.00;101999.56;5073258;28;45262;-75
2022/03/28 07:31:08;;;;;;;;;63.75;48.50;;;;;12.08;60.88;102033.44;5078922;28;45559;-74
2022/03/28 07:33:34;;;;;;;;;63.75;49.00;;;;;12.26;58.27;102035.84;5074846;28;45412;-74
2022/03/28 07:36:00;;;;;;;;;62.25;47.75;;;;;12.34;60.18;102017.59;5077017;28;45476;-75
2022/03/28 07:38:25;;;;;;;;;61.00;47.50;;;;;12.10;61.44;101949.59;5075824;28;46334;-77
2022/03/28 07:40:50;;;;;;;;;66.00;47.25;;;;;12.72;59.77;102024.28;5075291;27;45456;-75
2022/03/28 07:43:16;;;;;;;;;57.75;47.00;;;;;12.78;60.48;102013.88;5075130;28;45395;-75
2022/03/28 07:45:42;;;;;;;;;62.25;48.75;;;;;13.02;59.49;102021.75;5078556;28;45445;-75
2022/03/28 07:48:07;;;;;;;;;63.50;49.00;;;;;12.98;57.75;101991.56;5077424;28;45410;-75
2022/03/28 07:50:34;;;;;;;;;61.50;47.00;;;;;13.26;57.42;102024.38;5076646;28;46982;-74
2022/03/28 07:53:00;;;;;;;;;72.25;51.25;;;;;13.21;58.53;101980.78;5077687;28;45866;-75
2022/03/28 07:55:26;;;;;;;;;62.75;49.50;;;;;13.45;57.47;102014.34;5070060;28;46146;-74
2022/03/28 07:57:51;;;;;;;;;58.75;46.00;;;;;13.26;57.74;101975.69;5076997;27;45984;-74
2022/03/28 08:00:17;;;;;;;;;66.00;50.50;;;;;13.59;58.41;102003.31;5072465;28;46455;-73
2022/03/28 08:02:43;;;;;;;;;61.25;49.50;;;;;13.79;57.59;102014.56;5077150;28;45277;-75
2022/03/28 08:05:10;;;;;;;;;60.00;46.75;;;;;13.87;56.09;101990.88;5069046;28;45337;-74
2022/03/28 08:07:36;;;;;;;;;63.75;49.00;;;;;14.17;56.51;102006.84;5074172;28;46218;-74
2022/03/28 08:10:04;;;;;;;;;61.00;48.00;;;;;14.04;56.32;101968.34;5069079;27;46195;-74
2022/03/28 08:12:30;;;;;;;;;66.50;49.50;;;;;14.52;55.40;102015.81;5077842;27;45445;-74
2022/03/28 08:14:56;;;;;;;;;60.00;47.50;;;;;14.57;54.84;101989.34;5067748;28;45450;-74
2022/03/28 08:17:22;;;;;;;;;66.50;48.25;;;;;14.73;54.52;101986.25;5077579;27;45718;-75
2022/03/28 08:19:47;;;;;;;;;63.00;48.50;;;;;15.09;54.52;101998.66;5076570;28;46940;-75
2022/03/28 08:22:14;;;;;;;;;64.25;49.00;;;;;15.11;53.72;101972.09;5076682;28;45334;-75
2022/03/28 08:24:40;;;;;;;;;62.75;47.25;;;;;15.39;53.32;102001.19;5071820;28;45310;-75
2022/03/28 08:27:06;;;;;;;;;64.75;49.00;;;;;15.30;53.33;101969.00;5078072;28;45497;-75
2022/03/28 08:29:32;;;;;;;;;62.25;48.00;;;;;15.60;52.91;101987.47;5069826;27;45404;-75
2022/03/28 08:31:59;;;;;;;;;65.00;50.00;;;;;15.80;52.52;101992.41;5069400;28;45334;-75
2022/03/28 08:34:25;;;;;;;;;62.75;48.75;;;;;15.90;52.39;101981.03;5072938;28;45431;-75
2022/03/28 08:36:50;;;;;;;;;61.75;48.00;;;;;16.21;52.00;101998.56;5070057;28;45629;-75
2022/03/28 08:39:16;;;;;;;;;61.00;48.00;;;;;16.18;51.43;101977.19;5073106;28;46435;-74
2022/03/28 08:41:42;;;;;;;;;65.00;49.25;;;;;16.43;51.06;101994.56;5069986;28;45387;-76
2022/03/28 08:44:07;;;;;;;;;59.50;47.25;;;;;16.39;50.82;101978.50;5078637;28;45323;-74
2022/03/28 08:46:33;;;;;;;;;60.00;46.25;;;;;16.74;50.80;101989.81;5072715;28;45458;-74
2022/03/28 08:48:59;;;;;;;;;63.25;48.50;;;;;16.84;49.46;101996.28;5073356;28;47798;-74
2022/03/28 08:51:27;;;;;;;;;64.25;48.25;;;;;16.83;49.54;101960.63;5081713;28;45416;-74
2022/03/28 08:53:53;;;;;;;;;63.00;47.25;;;;;17.23;49.36;101988.91;5080007;27;45356;-75
2022/03/28 08:56:18;;;;;;;;;60.25;48.50;;;;;17.50;48.67;101986.63;5075228;28;47160;-76
2022/03/28 08:58:44;;;;;;;;;59.75;46.50;;;;;17.55;49.17;101955.53;5077762;28;46471;-75
2022/03/28 09:01:11;;;;;;;;;64.75;50.75;;;;;17.70;47.43;101957.50;5080744;27;45243;-76
2022/03/28 09:03:42;;;;;;;;;62.75;48.00;;;;;17.82;47.93;101944.34;5075705;27;45457;-75
2022/03/28 09:06:32;;;;;;;;;59.50;47.50;;;;;18.15;47.42;101977.72;5074909;28;46508;-76
2022/03/28 09:09:16;;;;;;;;;57.50;46.00;;;;;18.08;46.63;101983.00;5072500;28;45957;-76
2022/03/28 09:11:43;;;;;;;;;59.75;45.00;;;;;18.15;46.12;101948.28;5078893;28;44776;-75
2022/03/28 09:14:24;;;;;;;;;61.25;45.75;;;;;18.53;47.04;101971.03;5070893;28;45403;-75
2022/03/28 09:17:04;;;;;;;;;56.75;45.75;;;;;18.52;45.58;101937.09;5068502;28;45418;-74
2022/03/28 09:19:49;;;;;;;;;54.00;43.00;;;;;18.99;45.88;101965.25;5065853;28;45375;-74
2022/03/28 09:22:26;;;;;;;;;55.50;44.00;;;;;19.01;44.84;101921.47;5080181;28;45346;-75
2022/03/28 09:24:54;;;;;;;;;59.50;45.50;;;;;19.57;43.48;101965.63;5073586;28;45284;-76
2022/03/28 09:27:26;;;;;;;;;55.50;43.50;;;;;19.76;43.71;101955.06;5073659;28;45238;-76
2022/03/28 09:30:05;;;;;;;;;60.00;47.25;;;;;20.07;44.52;101967.72;5073058;28;46263;-76
2022/03/28 09:32:36;;;;;;;;;60.00;45.50;;;;;20.34;42.61;101964.22;5075896;28;45657;-76
2022/03/28 09:35:08;;;;;;;;;59.50;46.75;;;;;20.62;42.82;101963.44;5068971;28;45442;-77
2022/03/28 09:38:05;;;;;;;;;59.25;46.50;;;;;20.91;42.43;101950.00;5078442;28;45567;-81
2022/03/28 09:40:49;;;;;;;;;54.25;41.50;;;;;21.21;40.69;101955.34;5068464;28;45377;-81
2022/03/28 09:43:14;;;;;;;;;54.00;45.00;;;;;21.49;39.19;101951.78;5080122;28;45533;-81
2022/03/28 09:45:39;;;;;;;;;58.75;45.50;;;;;21.75;38.55;101952.56;5072551;28;45236;-80
2022/03/28 09:48:08;;;;;;;;;54.50;41.75;;;;;22.01;39.75;101944.38;5079242;28;45544;-81
2022/03/28 09:50:40;;;;;;;;;53.25;41.75;;;;;21.76;39.24;101889.78;5077625;28;47491;-79
2022/03/28 09:53:19;;;;;;;;;53.00;41.25;;;;;22.21;39.81;101943.41;5072222;28;45386;-80
2022/03/28 09:55:50;;;;;;;;;56.00;42.50;;;;;22.28;37.07;101927.22;5071004;28;45346;-79
2022/03/28 09:58:42;;;;;;;;;55.25;41.25;;;;;22.52;37.40;101928.88;5079312;27;45358;-80
2022/03/28 10:01:11;;;;;;;;;51.00;41.00;;;;;22.80;37.88;101939.44;5074706;28;46492;-78
2022/03/28 10:03:37;;;;;;;;;52.50;42.25;;;;;22.87;36.74;101914.19;5082313;27;45511;-79
2022/03/28 10:06:04;;;;;;;;;54.33;41.67;;;;;23.10;36.09;101910.44;5079862;27;45315;-79
2022/03/28 10:08:31;;;;;;;;;50.00;40.00;;;;;23.42;34.33;101926.28;5074506;28;46140;-78
2022/03/28 10:10:58;;;;;;;;;51.33;41.67;;;;;23.30;35.63;101881.47;5080918;27;45686;-79
2022/03/28 10:13:24;;;;;;;;;52.00;41.33;;;;;23.55;37.04;101925.22;5076645;27;45693;-79
2022/03/28 10:15:50;;;;;;;;;50.00;40.00;;;;;23.24;36.52;101922.84;5073831;28;45413;-78
2022/03/28 10:18:16;;;;;;;;;49.75;41.75;;;;;23.12;35.56;101903.22;5065212;28;45739;-78
2022/03/28 10:20:44;;;;;;;;;53.67;41.33;;;;;23.22;37.57;101904.94;5078817;28;46663;-79
2022/03/28 10:23:17;;;;;;;;;49.00;38.33;;;;;23.24;36.00;101890.47;5075137;27;45161;-80
2022/03/28 10:25:43;;;;;;;;;52.67;42.33;;;;;23.32;34.76;101876.91;5068089;27;45343;-80
2022/03/28 10:28:09;;;;;;;;;48.33;39.33;;;;;23.52;34.88;101878.50;5072664;28;46317;-79
2022/03/28 10:30:35;;;;;;;;;49.00;37.00;;;;;23.76;33.07;101891.72;5068755;28;46573;-79
2022/03/28 10:33:11;;;;;;;;;53.00;42.67;;;;;23.92;35.13;101886.09;5079885;28;45435;-81
2022/03/28 10:35:37;;;;;;;;;49.33;38.67;;;;;23.71;32.79;101850.38;5067140;28;45323;-81
2022/03/28 10:38:17;;;;;;;;;43.33;36.33;;;;;23.60;35.02;101812.69;5079962;28;45326;-82
2022/03/28 10:40:57;;;;;;;;;52.67;42.67;;;;;24.12;34.89;101882.22;5070550;28;45657;-77
2022/03/28 10:43:26;;;;;;;;;46.67;36.00;;;;;24.09;32.04;101836.34;5080258;28;45308;-80
2022/03/28 10:45:59;;;;;;;;;52.00;41.00;;;;;24.39;31.97;101852.97;5088776;27;45315;-79
2022/03/28 10:48:41;;;;;;;;;49.67;38.00;;;;;24.77;32.06;101867.69;5079211;28;45375;-79
2022/03/28 10:51:09;;;;;;;;;30.33;29.67;;;;;24.25;27.49;101863.09;5072814;28;46147;-79
2022/03/28 10:53:41;;;;;;;;;35.33;32.33;;;;;24.43;29.21;101870.06;5079266;28;45349;-77
2022/03/28 10:56:15;;;;;;;;;33.33;27.33;;;;;24.65;30.66;101865.22;5074781;27;44827;-79
2022/03/28 10:58:44;;;;;;;;;38.33;29.67;;;;;24.81;31.24;101853.19;5069860;28;46374;-79
2022/03/28 11:01:12;;;;;;;;;32.33;31.33;;;;;24.82;28.60;101852.28;5075757;27;46575;-78
2022/03/28 11:03:44;;;;;;;;;33.67;30.33;;;;;24.88;28.32;101844.06;5074458;28;45403;-78
2022/03/28 11:06:10;;;;;;;;;34.33;30.33;;;;;24.94;26.87;101822.28;5076578;28;45402;-77
2022/03/28 11:08:38;;;;;;;;;39.67;33.00;;;;;25.19;27.80;101833.56;5078608;28;45814;-78
2022/03/28 11:11:21;;;;;;;;;43.33;36.67;;;;;25.36;27.57;101814.28;5078702;28;46131;-77